sensor_id;sensor_type;location;lat;lon;timestamp;P1;durP1;ratioP1;P2;durP2;ratioP2
21168;SDS011;10742;51.816;8.662;2022-11-09T00:02:11;3.70;;;1.90;;
21168;SDS011;10742;51.816;8.662;2022-11-09T00:05:14;3.43;;;1.87;;
21168;SDS011;10742;51.816;8.662;2022-11-09T00:08:16;4.93;;;1.80;;
21168;SDS011;10742;51.816;8.662;2022-11-09T00:11:18;2.50;;;1.67;;
21168;SDS011;10742;51.816;8.662;2022-11-09T00:14:21;2.27;;;1.50;;
21168;SDS011;10742;51.816;8.662;2022-11-09T00:17:24;6.30;;;2.03;;
21168;SDS011;10742;51.816;8.662;2022-11-09T00:20:28;2.53;;;1.57;;
21168;SDS011;10742;51.816;8.662;2022-11-09T00:23:30;2.73;;;1.60;;
21168;SDS011;10742;51.816;8.662;2022-11-09T00:26:33;1.83;;;1.40;;
21168;SDS011;10742;51.816;8.662;2022-11-09T00:29:35;3.23;;;1.60;;
21168;SDS011;10742;51.816;8.662;2022-11-09T00:32:37;4.80;;;1.73;;
21168;SDS011;10742;51.816;8.662;2022-11-09T00:35:40;2.47;;;1.70;;
21168;SDS011;10742;51.816;8.662;2022-11-09T00:38:46;4.13;;;1.63;;
21168;SDS011;10742;51.816;8.662;2022-11-09T00:41:51;2.67;;;1.60;;
21168;SDS011;10742;51.816;8.662;2022-11-09T00:44:53;2.03;;;1.40;;
21168;SDS011;10742;51.816;8.662;2022-11-09T00:47:55;1.60;;;1.27;;
21168;SDS011;10742;51.816;8.662;2022-11-09T00:50:58;4.30;;;1.50;;
21168;SDS011;10742;51.816;8.662;2022-11-09T00:54:00;2.80;;;1.70;;
21168;SDS011;10742;51.816;8.662;2022-11-09T00:57:03;3.50;;;1.43;;
21168;SDS011;10742;51.816;8.662;2022-11-09T01:00:05;5.40;;;1.43;;
21168;SDS011;10742;51.816;8.662;2022-11-09T01:03:08;4.43;;;1.63;;
21168;SDS011;10742;51.816;8.662;2022-11-09T01:06:14;1.73;;;1.33;;
21168;SDS011;10742;51.816;8.662;2022-11-09T01:09:22;4.30;;;1.50;;
21168;SDS011;10742;51.816;8.662;2022-11-09T01:12:24;1.73;;;1.37;;
21168;SDS011;10742;51.816;8.662;2022-11-09T01:15:27;4.13;;;1.60;;
21168;SDS011;10742;51.816;8.662;2022-11-09T01:18:30;5.30;;;1.40;;
21168;SDS011;10742;51.816;8.662;2022-11-09T01:21:32;2.80;;;1.47;;
21168;SDS011;10742;51.816;8.662;2022-11-09T01:24:34;1.63;;;1.23;;
21168;SDS011;10742;51.816;8.662;2022-11-09T01:27:37;2.87;;;1.60;;
21168;SDS011;10742;51.816;8.662;2022-11-09T01:30:40;3.67;;;1.53;;
21168;SDS011;10742;51.816;8.662;2022-11-09T01:33:43;1.70;;;1.30;;
21168;SDS011;10742;51.816;8.662;2022-11-09T01:36:48;2.13;;;1.30;;
21168;SDS011;10742;51.816;8.662;2022-11-09T01:39:52;2.43;;;1.53;;
21168;SDS011;10742;51.816;8.662;2022-11-09T01:42:54;1.87;;;1.30;;
21168;SDS011;10742;51.816;8.662;2022-11-09T01:49:14;1.40;;;1.30;;
21168;SDS011;10742;51.816;8.662;2022-11-09T01:52:19;3.00;;;1.43;;
21168;SDS011;10742;51.816;8.662;2022-11-09T01:55:26;3.50;;;1.63;;
21168;SDS011;10742;51.816;8.662;2022-11-09T01:58:37;2.87;;;1.50;;
21168;SDS011;10742;51.816;8.662;2022-11-09T02:01:48;2.77;;;1.60;;
21168;SDS011;10742;51.816;8.662;2022-11-09T02:04:55;1.20;;;1.10;;
21168;SDS011;10742;51.816;8.662;2022-11-09T02:08:02;2.20;;;1.40;;
21168;SDS011;10742;51.816;8.662;2022-11-09T02:11:11;2.07;;;1.30;;
21168;SDS011;10742;51.816;8.662;2022-11-09T02:14:15;2.77;;;1.53;;
21168;SDS011;10742;51.816;8.662;2022-11-09T02:17:19;3.23;;;1.57;;
21168;SDS011;10742;51.816;8.662;2022-11-09T02:20:23;6.33;;;1.50;;
21168;SDS011;10742;51.816;8.662;2022-11-09T02:23:27;4.37;;;1.40;;
21168;SDS011;10742;51.816;8.662;2022-11-09T02:29:37;2.17;;;1.67;;
21168;SDS011;10742;51.816;8.662;2022-11-09T02:32:42;2.27;;;1.50;;
21168;SDS011;10742;51.816;8.662;2022-11-09T02:35:45;2.07;;;1.60;;
21168;SDS011;10742;51.816;8.662;2022-11-09T02:38:47;3.87;;;1.40;;
21168;SDS011;10742;51.816;8.662;2022-11-09T02:42:04;3.97;;;1.53;;
21168;SDS011;10742;51.816;8.662;2022-11-09T02:45:15;1.43;;;1.33;;
21168;SDS011;10742;51.816;8.662;2022-11-09T02:48:17;1.43;;;1.33;;
21168;SDS011;10742;51.816;8.662;2022-11-09T02:51:19;2.67;;;1.27;;
21168;SDS011;10742;51.816;8.662;2022-11-09T02:54:22;2.20;;;1.30;;
21168;SDS011;10742;51.816;8.662;2022-11-09T02:57:27;2.47;;;1.43;;
21168;SDS011;10742;51.816;8.662;2022-11-09T03:00:30;2.60;;;1.20;;
21168;SDS011;10742;51.816;8.662;2022-11-09T03:03:32;2.20;;;1.60;;
21168;SDS011;10742;51.816;8.662;2022-11-09T03:06:34;1.70;;;1.40;;
21168;SDS011;10742;51.816;8.662;2022-11-09T03:09:43;2.37;;;1.37;;
21168;SDS011;10742;51.816;8.662;2022-11-09T03:12:46;2.60;;;1.30;;
21168;SDS011;10742;51.816;8.662;2022-11-09T03:15:49;2.90;;;1.47;;
21168;SDS011;10742;51.816;8.662;2022-11-09T03:18:51;2.37;;;1.50;;
21168;SDS011;10742;51.816;8.662;2022-11-09T03:21:55;2.37;;;1.40;;
21168;SDS011;10742;51.816;8.662;2022-11-09T03:24:58;3.17;;;1.70;;
21168;SDS011;10742;51.816;8.662;2022-11-09T03:28:01;3.23;;;1.80;;
21168;SDS011;10742;51.816;8.662;2022-11-09T03:31:06;6.33;;;1.67;;
21168;SDS011;10742;51.816;8.662;2022-11-09T03:34:09;3.60;;;1.57;;
21168;SDS011;10742;51.816;8.662;2022-11-09T03:37:12;3.23;;;1.60;;
21168;SDS011;10742;51.816;8.662;2022-11-09T03:40:15;3.17;;;1.87;;
21168;SDS011;10742;51.816;8.662;2022-11-09T03:43:18;1.53;;;1.37;;
21168;SDS011;10742;51.816;8.662;2022-11-09T03:46:21;4.10;;;1.67;;
21168;SDS011;10742;51.816;8.662;2022-11-09T03:49:23;3.13;;;1.47;;
21168;SDS011;10742;51.816;8.662;2022-11-09T03:52:26;3.30;;;1.87;;
21168;SDS011;10742;51.816;8.662;2022-11-09T03:55:28;1.93;;;1.73;;
21168;SDS011;10742;51.816;8.662;2022-11-09T03:58:31;2.53;;;1.60;;
21168;SDS011;10742;51.816;8.662;2022-11-09T04:01:33;3.30;;;1.70;;
21168;SDS011;10742;51.816;8.662;2022-11-09T04:04:36;2.27;;;1.47;;
21168;SDS011;10742;51.816;8.662;2022-11-09T04:07:38;2.33;;;1.63;;
21168;SDS011;10742;51.816;8.662;2022-11-09T04:10:41;3.97;;;1.77;;
21168;SDS011;10742;51.816;8.662;2022-11-09T04:13:43;2.13;;;1.63;;
21168;SDS011;10742;51.816;8.662;2022-11-09T04:16:45;2.27;;;1.60;;
21168;SDS011;10742;51.816;8.662;2022-11-09T04:19:48;5.17;;;2.07;;
21168;SDS011;10742;51.816;8.662;2022-11-09T04:22:54;3.77;;;1.87;;
21168;SDS011;10742;51.816;8.662;2022-11-09T04:25:57;3.20;;;1.93;;
21168;SDS011;10742;51.816;8.662;2022-11-09T04:29:00;2.47;;;1.80;;
21168;SDS011;10742;51.816;8.662;2022-11-09T04:32:02;3.33;;;1.83;;
21168;SDS011;10742;51.816;8.662;2022-11-09T04:35:05;5.03;;;1.93;;
21168;SDS011;10742;51.816;8.662;2022-11-09T04:38:09;2.33;;;2.10;;
21168;SDS011;10742;51.816;8.662;2022-11-09T04:41:13;3.00;;;1.90;;
21168;SDS011;10742;51.816;8.662;2022-11-09T04:44:15;4.03;;;2.13;;
21168;SDS011;10742;51.816;8.662;2022-11-09T04:47:18;3.47;;;2.10;;
21168;SDS011;10742;51.816;8.662;2022-11-09T04:50:20;2.73;;;2.03;;
21168;SDS011;10742;51.816;8.662;2022-11-09T04:53:25;5.03;;;2.17;;
21168;SDS011;10742;51.816;8.662;2022-11-09T04:56:28;4.97;;;2.27;;
21168;SDS011;10742;51.816;8.662;2022-11-09T04:59:30;7.47;;;2.50;;
21168;SDS011;10742;51.816;8.662;2022-11-09T05:02:32;3.60;;;2.03;;
21168;SDS011;10742;51.816;8.662;2022-11-09T05:05:35;3.73;;;1.97;;
21168;SDS011;10742;51.816;8.662;2022-11-09T05:08:38;4.07;;;2.20;;
21168;SDS011;10742;51.816;8.662;2022-11-09T05:11:40;6.87;;;2.40;;
21168;SDS011;10742;51.816;8.662;2022-11-09T05:14:43;5.27;;;2.50;;
21168;SDS011;10742;51.816;8.662;2022-11-09T05:17:45;6.37;;;2.17;;
21168;SDS011;10742;51.816;8.662;2022-11-09T05:20:47;5.57;;;2.37;;
21168;SDS011;10742;51.816;8.662;2022-11-09T05:23:49;4.30;;;2.27;;
21168;SDS011;10742;51.816;8.662;2022-11-09T05:27:01;6.27;;;2.40;;
21168;SDS011;10742;51.816;8.662;2022-11-09T05:30:24;4.50;;;2.40;;
21168;SDS011;10742;51.816;8.662;2022-11-09T05:33:49;1.90;;;1.77;;
21168;SDS011;10742;51.816;8.662;2022-11-09T05:37:11;3.47;;;1.93;;
21168;SDS011;10742;51.816;8.662;2022-11-09T05:40:32;4.37;;;2.20;;
21168;SDS011;10742;51.816;8.662;2022-11-09T05:43:35;6.13;;;2.17;;
21168;SDS011;10742;51.816;8.662;2022-11-09T05:46:38;2.93;;;2.03;;
21168;SDS011;10742;51.816;8.662;2022-11-09T05:49:40;4.47;;;2.30;;
21168;SDS011;10742;51.816;8.662;2022-11-09T05:52:42;2.87;;;2.03;;
21168;SDS011;10742;51.816;8.662;2022-11-09T05:55:45;2.30;;;2.07;;
21168;SDS011;10742;51.816;8.662;2022-11-09T05:58:47;3.17;;;2.10;;
21168;SDS011;10742;51.816;8.662;2022-11-09T06:01:49;4.43;;;2.20;;
21168;SDS011;10742;51.816;8.662;2022-11-09T06:04:52;3.47;;;2.20;;
21168;SDS011;10742;51.816;8.662;2022-11-09T06:07:54;4.20;;;2.13;;
21168;SDS011;10742;51.816;8.662;2022-11-09T06:11:00;5.17;;;2.03;;
21168;SDS011;10742;51.816;8.662;2022-11-09T06:14:06;3.43;;;2.03;;
21168;SDS011;10742;51.816;8.662;2022-11-09T06:17:08;3.53;;;2.10;;
21168;SDS011;10742;51.816;8.662;2022-11-09T06:20:10;3.33;;;2.10;;
21168;SDS011;10742;51.816;8.662;2022-11-09T06:23:12;3.50;;;2.40;;
21168;SDS011;10742;51.816;8.662;2022-11-09T06:26:15;7.93;;;2.53;;
21168;SDS011;10742;51.816;8.662;2022-11-09T06:29:17;3.60;;;2.13;;
21168;SDS011;10742;51.816;8.662;2022-11-09T06:32:20;4.93;;;2.33;;
21168;SDS011;10742;51.816;8.662;2022-11-09T06:35:23;10.33;;;2.50;;
21168;SDS011;10742;51.816;8.662;2022-11-09T06:38:25;4.67;;;2.33;;
21168;SDS011;10742;51.816;8.662;2022-11-09T06:41:27;6.07;;;2.80;;
21168;SDS011;10742;51.816;8.662;2022-11-09T06:44:30;4.13;;;2.20;;
21168;SDS011;10742;51.816;8.662;2022-11-09T06:47:32;3.43;;;2.30;;
21168;SDS011;10742;51.816;8.662;2022-11-09T06:50:35;4.37;;;2.37;;
21168;SDS011;10742;51.816;8.662;2022-11-09T06:53:37;5.03;;;2.30;;
21168;SDS011;10742;51.816;8.662;2022-11-09T06:56:42;2.73;;;1.97;;
21168;SDS011;10742;51.816;8.662;2022-11-09T06:59:44;5.73;;;2.23;;
21168;SDS011;10742;51.816;8.662;2022-11-09T07:02:46;3.97;;;1.97;;
21168;SDS011;10742;51.816;8.662;2022-11-09T07:05:49;3.33;;;2.10;;
21168;SDS011;10742;51.816;8.662;2022-11-09T07:08:54;3.90;;;1.90;;
21168;SDS011;10742;51.816;8.662;2022-11-09T07:11:57;4.30;;;2.03;;
21168;SDS011;10742;51.816;8.662;2022-11-09T07:14:59;8.17;;;2.20;;
21168;SDS011;10742;51.816;8.662;2022-11-09T07:18:02;5.87;;;2.23;;
21168;SDS011;10742;51.816;8.662;2022-11-09T07:21:06;4.23;;;2.20;;
21168;SDS011;10742;51.816;8.662;2022-11-09T07:24:12;5.47;;;2.27;;
21168;SDS011;10742;51.816;8.662;2022-11-09T07:27:14;3.43;;;2.27;;
21168;SDS011;10742;51.816;8.662;2022-11-09T07:30:17;3.70;;;2.63;;
21168;SDS011;10742;51.816;8.662;2022-11-09T07:33:20;5.97;;;2.57;;
21168;SDS011;10742;51.816;8.662;2022-11-09T07:36:23;3.47;;;2.60;;
21168;SDS011;10742;51.816;8.662;2022-11-09T07:39:25;7.87;;;2.50;;
21168;SDS011;10742;51.816;8.662;2022-11-09T07:42:28;2.63;;;2.43;;
21168;SDS011;10742;51.816;8.662;2022-11-09T07:45:30;3.20;;;2.50;;
21168;SDS011;10742;51.816;8.662;2022-11-09T07:48:34;5.57;;;2.40;;
21168;SDS011;10742;51.816;8.662;2022-11-09T07:51:37;3.53;;;2.63;;
21168;SDS011;10742;51.816;8.662;2022-11-09T07:54:39;4.33;;;2.50;;
21168;SDS011;10742;51.816;8.662;2022-11-09T07:57:41;3.60;;;2.43;;
21168;SDS011;10742;51.816;8.662;2022-11-09T08:00:45;6.13;;;2.97;;
21168;SDS011;10742;51.816;8.662;2022-11-09T08:03:47;4.03;;;2.33;;
21168;SDS011;10742;51.816;8.662;2022-11-09T08:06:52;4.63;;;2.63;;
21168;SDS011;10742;51.816;8.662;2022-11-09T08:09:55;5.50;;;2.67;;
21168;SDS011;10742;51.816;8.662;2022-11-09T08:12:58;6.87;;;2.57;;
21168;SDS011;10742;51.816;8.662;2022-11-09T08:16:02;5.80;;;2.83;;
21168;SDS011;10742;51.816;8.662;2022-11-09T08:19:04;4.23;;;2.60;;
21168;SDS011;10742;51.816;8.662;2022-11-09T08:22:09;4.90;;;3.30;;
21168;SDS011;10742;51.816;8.662;2022-11-09T08:25:12;3.27;;;2.33;;
21168;SDS011;10742;51.816;8.662;2022-11-09T08:28:15;5.50;;;3.43;;
21168;SDS011;10742;51.816;8.662;2022-11-09T08:31:18;9.87;;;4.30;;
21168;SDS011;10742;51.816;8.662;2022-11-09T08:34:20;7.97;;;3.47;;
21168;SDS011;10742;51.816;8.662;2022-11-09T08:37:23;8.23;;;4.47;;
21168;SDS011;10742;51.816;8.662;2022-11-09T08:40:25;14.63;;;5.97;;
21168;SDS011;10742;51.816;8.662;2022-11-09T08:43:27;17.67;;;8.67;;
21168;SDS011;10742;51.816;8.662;2022-11-09T08:46:30;33.30;;;11.27;;
21168;SDS011;10742;51.816;8.662;2022-11-09T08:49:32;73.67;;;27.27;;
21168;SDS011;10742;51.816;8.662;2022-11-09T08:52:35;156.03;;;52.07;;
21168;SDS011;10742;51.816;8.662;2022-11-09T08:55:37;89.73;;;32.10;;
21168;SDS011;10742;51.816;8.662;2022-11-09T08:58:44;182.50;;;57.10;;
21168;SDS011;10742;51.816;8.662;2022-11-09T09:01:47;448.93;;;140.20;;
21168;SDS011;10742;51.816;8.662;2022-11-09T09:04:49;486.90;;;144.97;;
21168;SDS011;10742;51.816;8.662;2022-11-09T09:07:52;834.90;;;227.43;;
21168;SDS011;10742;51.816;8.662;2022-11-09T09:10:54;1037.03;;;248.93;;
21168;SDS011;10742;51.816;8.662;2022-11-09T09:13:56;1290.40;;;302.33;;
21168;SDS011;10742;51.816;8.662;2022-11-09T09:17:17;818.30;;;216.63;;
21168;SDS011;10742;51.816;8.662;2022-11-09T09:20:38;919.17;;;246.90;;
21168;SDS011;10742;51.816;8.662;2022-11-09T09:24:00;793.73;;;214.70;;
21168;SDS011;10742;51.816;8.662;2022-11-09T09:27:21;867.37;;;249.53;;
21168;SDS011;10742;51.816;8.662;2022-11-09T09:30:42;752.77;;;243.57;;
21168;SDS011;10742;51.816;8.662;2022-11-09T09:34:03;599.37;;;201.10;;
21168;SDS011;10742;51.816;8.662;2022-11-09T09:37:25;625.63;;;199.63;;
21168;SDS011;10742;51.816;8.662;2022-11-09T09:44:00;246.67;;;83.27;;
21168;SDS011;10742;51.816;8.662;2022-11-09T09:47:27;1696.37;;;204.53;;
21168;SDS011;10742;51.816;8.662;2022-11-09T09:50:55;210.70;;;69.40;;
21168;SDS011;10742;51.816;8.662;2022-11-09T09:54:09;178.23;;;56.17;;
21168;SDS011;10742;51.816;8.662;2022-11-09T09:57:17;116.20;;;39.10;;
21168;SDS011;10742;51.816;8.662;2022-11-09T10:00:23;98.93;;;32.73;;
21168;SDS011;10742;51.816;8.662;2022-11-09T10:03:27;16.83;;;7.77;;
21168;SDS011;10742;51.816;8.662;2022-11-09T10:13:26;6.23;;;2.77;;
21168;SDS011;10742;51.816;8.662;2022-11-09T10:16:54;6.50;;;2.80;;
21168;SDS011;10742;51.816;8.662;2022-11-09T10:23:44;5.90;;;2.57;;
21168;SDS011;10742;51.816;8.662;2022-11-09T10:27:17;186.77;;;7.30;;
21168;SDS011;10742;51.816;8.662;2022-11-09T10:30:28;22.13;;;4.53;;
21168;SDS011;10742;51.816;8.662;2022-11-09T10:33:31;17.43;;;3.40;;
21168;SDS011;10742;51.816;8.662;2022-11-09T10:36:44;66.33;;;8.83;;
21168;SDS011;10742;51.816;8.662;2022-11-09T10:43:38;553.07;;;60.90;;
21168;SDS011;10742;51.816;8.662;2022-11-09T10:47:00;19.47;;;4.57;;
21168;SDS011;10742;51.816;8.662;2022-11-09T10:50:25;30.70;;;4.23;;
21168;SDS011;10742;51.816;8.662;2022-11-09T10:54:12;3.73;;;2.63;;
21168;SDS011;10742;51.816;8.662;2022-11-09T10:58:11;12.30;;;3.27;;
21168;SDS011;10742;51.816;8.662;2022-11-09T11:01:55;5.93;;;2.30;;
21168;SDS011;10742;51.816;8.662;2022-11-09T11:05:20;9.50;;;2.60;;
21168;SDS011;10742;51.816;8.662;2022-11-09T11:12:45;3.77;;;2.17;;
21168;SDS011;10742;51.816;8.662;2022-11-09T11:16:34;2.40;;;1.93;;
21168;SDS011;10742;51.816;8.662;2022-11-09T11:20:22;3.93;;;2.00;;
21168;SDS011;10742;51.816;8.662;2022-11-09T11:24:18;3.50;;;2.07;;
21168;SDS011;10742;51.816;8.662;2022-11-09T11:28:01;4.63;;;2.07;;
21168;SDS011;10742;51.816;8.662;2022-11-09T11:31:49;4.10;;;1.90;;
21168;SDS011;10742;51.816;8.662;2022-11-09T11:35:14;3.00;;;1.80;;
21168;SDS011;10742;51.816;8.662;2022-11-09T11:38:46;7.70;;;2.10;;
21168;SDS011;10742;51.816;8.662;2022-11-09T11:54:00;6.17;;;2.07;;
21168;SDS011;10742;51.816;8.662;2022-11-09T12:05:43;3.97;;;1.40;;
21168;SDS011;10742;51.816;8.662;2022-11-09T12:09:33;3.87;;;1.90;;
21168;SDS011;10742;51.816;8.662;2022-11-09T12:17:45;4.57;;;1.30;;
21168;SDS011;10742;51.816;8.662;2022-11-09T12:29:54;6.30;;;1.83;;
21168;SDS011;10742;51.816;8.662;2022-11-09T12:37:26;2.53;;;1.07;;
21168;SDS011;10742;51.816;8.662;2022-11-09T12:40:54;5.43;;;1.43;;
21168;SDS011;10742;51.816;8.662;2022-11-09T12:44:23;1.67;;;1.17;;
21168;SDS011;10742;51.816;8.662;2022-11-09T12:47:46;3.83;;;1.27;;
21168;SDS011;10742;51.816;8.662;2022-11-09T12:51:07;3.30;;;1.10;;
21168;SDS011;10742;51.816;8.662;2022-11-09T12:54:29;3.30;;;1.10;;
21168;SDS011;10742;51.816;8.662;2022-11-09T12:57:50;7.67;;;1.60;;
21168;SDS011;10742;51.816;8.662;2022-11-09T13:05:26;4.30;;;0.90;;
21168;SDS011;10742;51.816;8.662;2022-11-09T13:13:02;5.23;;;1.20;;
21168;SDS011;10742;51.816;8.662;2022-11-09T13:16:48;4.70;;;1.40;;
21168;SDS011;10742;51.816;8.662;2022-11-09T13:27:53;2.23;;;0.90;;
21168;SDS011;10742;51.816;8.662;2022-11-09T13:31:14;3.40;;;0.80;;
21168;SDS011;10742;51.816;8.662;2022-11-09T13:43:00;4.37;;;1.10;;
21168;SDS011;10742;51.816;8.662;2022-11-09T13:46:23;3.43;;;1.40;;
21168;SDS011;10742;51.816;8.662;2022-11-09T13:49:54;5.07;;;1.10;;
21168;SDS011;10742;51.816;8.662;2022-11-09T13:56:58;3.60;;;1.23;;
21168;SDS011;10742;51.816;8.662;2022-11-09T14:00:23;3.53;;;1.30;;
21168;SDS011;10742;51.816;8.662;2022-11-09T14:04:04;4.13;;;1.30;;
21168;SDS011;10742;51.816;8.662;2022-11-09T14:07:44;7.03;;;1.33;;
21168;SDS011;10742;51.816;8.662;2022-11-09T14:15:28;5.23;;;1.13;;
21168;SDS011;10742;51.816;8.662;2022-11-09T14:19:34;4.03;;;1.20;;
21168;SDS011;10742;51.816;8.662;2022-11-09T14:23:17;2.77;;;1.17;;
21168;SDS011;10742;51.816;8.662;2022-11-09T14:26:39;5.50;;;1.10;;
21168;SDS011;10742;51.816;8.662;2022-11-09T14:30:42;4.80;;;1.10;;
21168;SDS011;10742;51.816;8.662;2022-11-09T14:34:04;7.00;;;1.43;;
21168;SDS011;10742;51.816;8.662;2022-11-09T14:37:27;1.80;;;1.17;;
21168;SDS011;10742;51.816;8.662;2022-11-09T14:40:48;5.27;;;1.30;;
21168;SDS011;10742;51.816;8.662;2022-11-09T14:44:32;3.13;;;1.27;;
21168;SDS011;10742;51.816;8.662;2022-11-09T14:48:00;7.83;;;1.47;;
21168;SDS011;10742;51.816;8.662;2022-11-09T14:51:23;6.13;;;1.47;;
21168;SDS011;10742;51.816;8.662;2022-11-09T14:54:57;5.13;;;1.67;;
21168;SDS011;10742;51.816;8.662;2022-11-09T14:58:18;6.53;;;1.40;;
21168;SDS011;10742;51.816;8.662;2022-11-09T15:02:03;8.33;;;1.80;;
21168;SDS011;10742;51.816;8.662;2022-11-09T15:05:48;9.27;;;1.70;;
21168;SDS011;10742;51.816;8.662;2022-11-09T15:09:40;4.40;;;1.73;;
21168;SDS011;10742;51.816;8.662;2022-11-09T15:13:36;7.93;;;1.70;;
21168;SDS011;10742;51.816;8.662;2022-11-09T15:17:25;6.17;;;1.30;;
21168;SDS011;10742;51.816;8.662;2022-11-09T15:24:56;7.57;;;1.73;;
21168;SDS011;10742;51.816;8.662;2022-11-09T15:28:42;6.30;;;1.50;;
21168;SDS011;10742;51.816;8.662;2022-11-09T15:35:50;5.27;;;1.47;;
21168;SDS011;10742;51.816;8.662;2022-11-09T15:39:20;2.50;;;1.30;;
21168;SDS011;10742;51.816;8.662;2022-11-09T15:42:42;4.53;;;1.50;;
21168;SDS011;10742;51.816;8.662;2022-11-09T15:46:04;8.23;;;1.87;;
21168;SDS011;10742;51.816;8.662;2022-11-09T15:49:26;7.37;;;1.93;;
21168;SDS011;10742;51.816;8.662;2022-11-09T15:52:48;5.77;;;1.93;;
21168;SDS011;10742;51.816;8.662;2022-11-09T15:56:14;6.80;;;1.83;;
21168;SDS011;10742;51.816;8.662;2022-11-09T16:00:02;4.43;;;1.83;;
21168;SDS011;10742;51.816;8.662;2022-11-09T16:03:44;8.50;;;1.87;;
21168;SDS011;10742;51.816;8.662;2022-11-09T16:07:05;8.80;;;2.00;;
21168;SDS011;10742;51.816;8.662;2022-11-09T16:10:27;6.00;;;2.17;;
21168;SDS011;10742;51.816;8.662;2022-11-09T16:13:50;8.53;;;2.20;;
21168;SDS011;10742;51.816;8.662;2022-11-09T16:17:11;8.33;;;2.57;;
21168;SDS011;10742;51.816;8.662;2022-11-09T16:20:50;3.97;;;1.63;;
21168;SDS011;10742;51.816;8.662;2022-11-09T16:24:31;10.13;;;1.60;;
21168;SDS011;10742;51.816;8.662;2022-11-09T16:28:10;5.70;;;1.60;;
21168;SDS011;10742;51.816;8.662;2022-11-09T16:31:50;10.87;;;3.53;;
21168;SDS011;10742;51.816;8.662;2022-11-09T16:35:32;12.87;;;2.50;;
21168;SDS011;10742;51.816;8.662;2022-11-09T16:39:13;13.17;;;2.60;;
21168;SDS011;10742;51.816;8.662;2022-11-09T16:42:36;6.87;;;1.80;;
21168;SDS011;10742;51.816;8.662;2022-11-09T16:45:58;7.37;;;1.87;;
21168;SDS011;10742;51.816;8.662;2022-11-09T16:49:19;6.30;;;1.67;;
21168;SDS011;10742;51.816;8.662;2022-11-09T16:52:40;6.43;;;2.00;;
21168;SDS011;10742;51.816;8.662;2022-11-09T16:56:01;7.57;;;2.17;;
21168;SDS011;10742;51.816;8.662;2022-11-09T16:59:22;3.70;;;1.97;;
21168;SDS011;10742;51.816;8.662;2022-11-09T17:02:43;7.73;;;1.73;;
21168;SDS011;10742;51.816;8.662;2022-11-09T17:06:04;11.90;;;2.00;;
21168;SDS011;10742;51.816;8.662;2022-11-09T17:09:33;10.97;;;1.97;;
21168;SDS011;10742;51.816;8.662;2022-11-09T17:12:54;8.97;;;1.70;;
21168;SDS011;10742;51.816;8.662;2022-11-09T17:16:15;23.17;;;2.70;;
21168;SDS011;10742;51.816;8.662;2022-11-09T17:19:39;6.97;;;1.90;;
21168;SDS011;10742;51.816;8.662;2022-11-09T17:23:00;6.03;;;1.63;;
21168;SDS011;10742;51.816;8.662;2022-11-09T17:26:22;7.17;;;1.73;;
21168;SDS011;10742;51.816;8.662;2022-11-09T17:30:03;8.67;;;1.63;;
21168;SDS011;10742;51.816;8.662;2022-11-09T17:33:45;10.67;;;2.23;;
21168;SDS011;10742;51.816;8.662;2022-11-09T17:37:25;7.00;;;2.57;;
21168;SDS011;10742;51.816;8.662;2022-11-09T17:40:47;11.47;;;2.23;;
21168;SDS011;10742;51.816;8.662;2022-11-09T17:44:08;6.10;;;2.60;;
21168;SDS011;10742;51.816;8.662;2022-11-09T17:47:29;9.77;;;2.30;;
21168;SDS011;10742;51.816;8.662;2022-11-09T17:50:51;5.07;;;1.63;;
21168;SDS011;10742;51.816;8.662;2022-11-09T17:54:12;5.63;;;1.80;;
21168;SDS011;10742;51.816;8.662;2022-11-09T17:57:33;8.93;;;2.10;;
21168;SDS011;10742;51.816;8.662;2022-11-09T18:00:54;9.20;;;2.00;;
21168;SDS011;10742;51.816;8.662;2022-11-09T18:04:15;8.07;;;1.90;;
21168;SDS011;10742;51.816;8.662;2022-11-09T18:07:36;4.53;;;1.70;;
21168;SDS011;10742;51.816;8.662;2022-11-09T18:11:16;7.87;;;2.20;;
21168;SDS011;10742;51.816;8.662;2022-11-09T18:14:56;8.87;;;2.40;;
21168;SDS011;10742;51.816;8.662;2022-11-09T18:18:36;8.67;;;2.50;;
21168;SDS011;10742;51.816;8.662;2022-11-09T18:22:16;8.10;;;2.30;;
21168;SDS011;10742;51.816;8.662;2022-11-09T18:25:37;5.90;;;1.97;;
21168;SDS011;10742;51.816;8.662;2022-11-09T18:29:17;13.70;;;4.60;;
21168;SDS011;10742;51.816;8.662;2022-11-09T18:32:56;8.13;;;2.43;;
21168;SDS011;10742;51.816;8.662;2022-11-09T18:36:37;5.53;;;2.00;;
21168;SDS011;10742;51.816;8.662;2022-11-09T18:40:17;6.57;;;2.20;;
21168;SDS011;10742;51.816;8.662;2022-11-09T18:43:38;9.23;;;2.00;;
21168;SDS011;10742;51.816;8.662;2022-11-09T18:46:59;6.13;;;1.90;;
21168;SDS011;10742;51.816;8.662;2022-11-09T18:50:24;7.90;;;2.17;;
21168;SDS011;10742;51.816;8.662;2022-11-09T18:53:46;8.23;;;2.00;;
21168;SDS011;10742;51.816;8.662;2022-11-09T18:57:08;8.40;;;2.27;;
21168;SDS011;10742;51.816;8.662;2022-11-09T19:00:33;9.90;;;2.40;;
21168;SDS011;10742;51.816;8.662;2022-11-09T19:03:54;9.37;;;2.17;;
21168;SDS011;10742;51.816;8.662;2022-11-09T19:07:18;4.70;;;2.03;;
21168;SDS011;10742;51.816;8.662;2022-11-09T19:10:40;9.37;;;2.00;;
21168;SDS011;10742;51.816;8.662;2022-11-09T19:14:01;10.17;;;2.50;;
21168;SDS011;10742;51.816;8.662;2022-11-09T19:17:23;11.47;;;2.60;;
21168;SDS011;10742;51.816;8.662;2022-11-09T19:20:44;13.87;;;2.60;;
21168;SDS011;10742;51.816;8.662;2022-11-09T19:24:06;8.23;;;2.73;;
21168;SDS011;10742;51.816;8.662;2022-11-09T19:27:30;11.53;;;2.63;;
21168;SDS011;10742;51.816;8.662;2022-11-09T19:30:51;12.23;;;2.60;;
21168;SDS011;10742;51.816;8.662;2022-11-09T19:34:32;9.57;;;2.57;;
21168;SDS011;10742;51.816;8.662;2022-11-09T19:38:12;8.63;;;2.77;;
21168;SDS011;10742;51.816;8.662;2022-11-09T19:41:52;9.23;;;2.70;;
21168;SDS011;10742;51.816;8.662;2022-11-09T19:45:13;6.70;;;2.47;;
21168;SDS011;10742;51.816;8.662;2022-11-09T19:48:36;5.27;;;2.00;;
21168;SDS011;10742;51.816;8.662;2022-11-09T19:52:02;12.03;;;2.70;;
21168;SDS011;10742;51.816;8.662;2022-11-09T19:55:23;6.73;;;2.33;;
21168;SDS011;10742;51.816;8.662;2022-11-09T19:58:48;7.43;;;2.13;;
21168;SDS011;10742;51.816;8.662;2022-11-09T20:02:10;7.77;;;2.20;;
21168;SDS011;10742;51.816;8.662;2022-11-09T20:05:34;8.83;;;2.60;;
21168;SDS011;10742;51.816;8.662;2022-11-09T20:08:59;8.37;;;2.53;;
21168;SDS011;10742;51.816;8.662;2022-11-09T20:12:21;9.80;;;2.57;;
21168;SDS011;10742;51.816;8.662;2022-11-09T20:16:04;10.60;;;2.97;;
21168;SDS011;10742;51.816;8.662;2022-11-09T20:19:27;7.10;;;2.57;;
21168;SDS011;10742;51.816;8.662;2022-11-09T20:22:48;9.17;;;2.40;;
21168;SDS011;10742;51.816;8.662;2022-11-09T20:26:09;9.30;;;2.07;;
21168;SDS011;10742;51.816;8.662;2022-11-09T20:29:30;5.93;;;2.30;;
21168;SDS011;10742;51.816;8.662;2022-11-09T20:33:10;8.67;;;2.20;;
21168;SDS011;10742;51.816;8.662;2022-11-09T20:36:50;13.93;;;2.33;;
21168;SDS011;10742;51.816;8.662;2022-11-09T20:40:30;7.60;;;2.00;;
21168;SDS011;10742;51.816;8.662;2022-11-09T20:43:52;6.33;;;1.97;;
21168;SDS011;10742;51.816;8.662;2022-11-09T20:47:13;7.77;;;1.93;;
21168;SDS011;10742;51.816;8.662;2022-11-09T20:50:35;11.70;;;2.00;;
21168;SDS011;10742;51.816;8.662;2022-11-09T20:53:56;8.80;;;1.80;;
21168;SDS011;10742;51.816;8.662;2022-11-09T20:57:20;9.00;;;1.90;;
21168;SDS011;10742;51.816;8.662;2022-11-09T21:01:02;6.73;;;1.90;;
21168;SDS011;10742;51.816;8.662;2022-11-09T21:04:44;10.50;;;2.03;;
21168;SDS011;10742;51.816;8.662;2022-11-09T21:08:24;7.37;;;2.13;;
21168;SDS011;10742;51.816;8.662;2022-11-09T21:12:04;10.80;;;2.50;;
21168;SDS011;10742;51.816;8.662;2022-11-09T21:15:44;10.27;;;2.60;;
21168;SDS011;10742;51.816;8.662;2022-11-09T21:19:05;10.07;;;2.93;;
21168;SDS011;10742;51.816;8.662;2022-11-09T21:22:26;5.83;;;2.30;;